createdAt,value
2019-04-20T00:00:43.032Z,1024.31
2019-04-20T00:01:38.898Z,1024.27
2019-04-20T00:02:37.889Z,1024.28
2019-04-20T00:03:41.629Z,1024.23
2019-04-20T00:04:39.062Z,1024.30
2019-04-20T00:05:39.127Z,1024.24
2019-04-20T00:06:45.899Z,1024.25
2019-04-20T00:07:39.700Z,1024.29
2019-04-20T00:08:40.889Z,1024.26
2019-04-20T00:09:39.955Z,1024.23
2019-04-20T00:10:47.593Z,1024.23
2019-04-20T00:11:50.765Z,1024.23
2019-04-20T00:12:53.432Z,1024.28
2019-04-20T00:13:49.849Z,1024.28
2019-04-20T00:14:40.505Z,1024.26
2019-04-20T00:15:38.924Z,1024.31
2019-04-20T00:16:37.862Z,1024.27
2019-04-20T00:17:39.375Z,1024.22
2019-04-20T00:18:45.931Z,1024.19
2019-04-20T00:19:44.036Z,1024.21
2019-04-20T00:20:40.300Z,1024.19
2019-04-20T00:21:42.727Z,1024.21
2019-04-20T00:22:45.222Z,1024.26
2019-04-20T00:23:42.214Z,1024.23
2019-04-20T00:24:39.297Z,1024.21
2019-04-20T00:25:49.801Z,1024.21
2019-04-20T00:27:28.447Z,1024.18
2019-04-20T00:27:59.539Z,1024.18
2019-04-20T00:28:56.197Z,1024.18
2019-04-20T00:29:56.205Z,1024.17
2019-04-20T00:31:01.202Z,1024.21
2019-04-20T00:31:49.222Z,1024.17
2019-04-20T00:32:53.236Z,1024.19
2019-04-20T00:33:50.673Z,1024.17
2019-04-20T00:34:41.676Z,1024.18
2019-04-20T00:35:38.538Z,1024.14
2019-04-20T00:36:37.524Z,1024.16
2019-04-20T00:37:38.034Z,1024.17
2019-04-20T00:38:42.564Z,1024.11
2019-04-20T00:39:38.493Z,1024.18
2019-04-20T00:40:37.505Z,1024.12
2019-04-20T00:41:45.192Z,1024.13
2019-04-20T00:42:45.163Z,1024.12
2019-04-20T00:43:40.454Z,1024.10
2019-04-20T00:44:40.733Z,1024.10
2019-04-20T00:45:47.668Z,1024.13
2019-04-20T00:46:53.153Z,1024.10
2019-04-20T00:47:47.771Z,1024.07
2019-04-20T00:48:48.529Z,1024.12
2019-04-20T00:49:52.747Z,1024.10
2019-04-20T00:50:48.823Z,1024.08
2019-04-20T00:52:07.411Z,1024.13
2019-04-20T00:52:55.261Z,1024.12
2019-04-20T00:53:43.321Z,1024.10
2019-04-20T00:54:39.046Z,1024.07
2019-04-20T00:55:38.045Z,1024.12
2019-04-20T00:56:37.316Z,1024.11
2019-04-20T00:57:46.621Z,1024.13
2019-04-20T00:58:52.326Z,1024.11
2019-04-20T01:00:03.106Z,1024.12
2019-04-20T01:01:04.109Z,1024.12
2019-04-20T01:02:01.021Z,1024.15
2019-04-20T01:02:52.196Z,1024.11
2019-04-20T01:03:52.717Z,1024.11
2019-04-20T01:05:00.420Z,1024.12
2019-04-20T01:05:59.670Z,1024.10
2019-04-20T01:06:50.313Z,1024.14
2019-04-20T01:07:45.475Z,1024.09
2019-04-20T01:08:38.189Z,1024.09
2019-04-20T01:09:37.168Z,1024.10
2019-04-20T01:10:42.776Z,1024.08
2019-04-20T01:11:42.240Z,1024.14
2019-04-20T01:12:40.466Z,1024.07
2019-04-20T01:13:46.903Z,1024.09
2019-04-20T01:14:47.036Z,1024.08
2019-04-20T01:15:48.906Z,1024.06
2019-04-20T01:16:47.297Z,1024.09
2019-04-20T01:17:41.752Z,1024.12
2019-04-20T01:18:37.075Z,1024.06
2019-04-20T01:19:37.061Z,1024.08
2019-04-20T01:20:37.053Z,1024.06
2019-04-20T01:21:38.275Z,1024.09
2019-04-20T01:22:44.475Z,1024.13
2019-04-20T01:23:46.070Z,1024.08
2019-04-20T01:24:43.250Z,1024.12
2019-04-20T01:25:42.429Z,1024.18
2019-04-20T01:26:43.754Z,1024.20
2019-04-20T01:27:51.317Z,1024.21
2019-04-20T01:28:51.141Z,1024.16
2019-04-20T01:29:45.689Z,1024.18
2019-04-20T01:30:44.610Z,1024.17
2019-04-20T01:31:53.007Z,1024.23
2019-04-20T01:32:55.156Z,1024.23
2019-04-20T01:33:51.952Z,1024.23
2019-04-20T01:34:50.441Z,1024.24
2019-04-20T01:35:53.251Z,1024.21
2019-04-20T01:36:56.374Z,1024.21
2019-04-20T01:37:57.606Z,1024.25
2019-04-20T01:38:54.673Z,1024.20
2019-04-20T01:39:44.336Z,1024.22
2019-04-20T01:40:38.160Z,1024.17
2019-04-20T01:41:37.201Z,1024.17
2019-04-20T01:42:38.071Z,1024.22
2019-04-20T01:43:37.437Z,1024.23
2019-04-20T01:44:41.963Z,1024.17
2019-04-20T01:45:41.985Z,1024.23
2019-04-20T01:46:39.119Z,1024.19
2019-04-20T01:47:45.255Z,1024.27
2019-04-20T01:48:39.953Z,1024.25
2019-04-20T01:49:38.478Z,1024.24
2019-04-20T01:50:47.342Z,1024.21
2019-04-20T01:51:48.269Z,1024.22
2019-04-20T01:52:50.384Z,1024.22
2019-04-20T01:53:50.477Z,1024.20
2019-04-20T01:54:56.387Z,1024.20
2019-04-20T01:55:51.096Z,1024.20
2019-04-20T01:56:47.247Z,1024.29
2019-04-20T01:57:56.174Z,1024.23
2019-04-20T01:58:54.973Z,1024.25
2019-04-20T01:59:46.097Z,1024.28
2019-04-20T02:00:40.716Z,1024.21
2019-04-20T02:01:40.563Z,1024.26
2019-04-20T02:02:45.015Z,1024.27
2019-04-20T02:03:43.021Z,1024.28
2019-04-20T02:04:41.979Z,1024.28
2019-04-20T02:05:39.036Z,1024.31
2019-04-20T02:06:44.408Z,1024.30
2019-04-20T02:07:43.769Z,1024.31
2019-04-20T02:08:37.860Z,1024.32
2019-04-20T02:09:43.383Z,1024.33
2019-04-20T02:10:45.956Z,1024.29
2019-04-20T02:11:41.533Z,1024.32
2019-04-20T02:12:40.727Z,1024.31
2019-04-20T02:13:44.411Z,1024.33
2019-04-20T02:14:43.784Z,1024.31
2019-04-20T02:15:42.146Z,1024.34
2019-04-20T02:16:45.208Z,1024.31
2019-04-20T02:17:46.130Z,1024.32
2019-04-20T02:18:51.402Z,1024.32
2019-04-20T02:19:57.321Z,1024.32
2019-04-20T02:20:54.536Z,1024.34
2019-04-20T02:21:51.677Z,1024.38
2019-04-20T02:22:57.073Z,1024.37
2019-04-20T02:23:47.407Z,1024.29
2019-04-20T02:24:38.704Z,1024.34
2019-04-20T02:25:37.587Z,1024.34
2019-04-20T02:26:36.716Z,1024.30
2019-04-20T02:27:43.268Z,1024.36
2019-04-20T02:29:07.708Z,1024.30
2019-04-20T02:30:04.352Z,1024.34
2019-04-20T02:31:17.794Z,1024.32
2019-04-20T02:33:16.739Z,1024.34
2019-04-20T02:34:16.397Z,1024.35
2019-04-20T02:35:07.627Z,1024.31
2019-04-20T02:37:14.155Z,1024.36
2019-04-20T02:38:12.145Z,1024.26
2019-04-20T02:39:27.079Z,1024.32
2019-04-20T02:40:12.762Z,1024.34
2019-04-20T02:41:09.866Z,1024.32
2019-04-20T02:42:17.900Z,1024.28
2019-04-20T02:43:32.899Z,1024.31
2019-04-20T02:44:15.982Z,1024.30
2019-04-20T02:46:12.806Z,1024.28
2019-04-20T02:49:19.473Z,1024.30
2019-04-20T02:50:09.090Z,1024.30
2019-04-20T02:51:06.683Z,1024.30
2019-04-20T02:52:28.658Z,1024.35
2019-04-20T02:53:11.397Z,1024.29
2019-04-20T02:55:10.943Z,1024.33
2019-04-20T02:56:12.938Z,1024.28
2019-04-20T02:57:12.243Z,1024.39
2019-04-20T02:58:07.676Z,1024.33
2019-04-20T03:01:01.145Z,1024.33
2019-04-20T03:01:54.718Z,1024.28
2019-04-20T03:02:48.881Z,1024.25
2019-04-20T03:03:45.060Z,1024.27
2019-04-20T03:04:44.171Z,1024.30
2019-04-20T03:05:47.721Z,1024.31
2019-04-20T03:06:55.990Z,1024.28
2019-04-20T03:07:57.399Z,1024.29
2019-04-20T03:08:59.915Z,1024.23
2019-04-20T03:09:58.414Z,1024.26
2019-04-20T03:11:03.649Z,1024.30
2019-04-20T03:12:59.714Z,1024.30
2019-04-20T03:13:57.826Z,1024.33
2019-04-20T03:14:53.930Z,1024.34
2019-04-20T03:15:57.987Z,1024.35
2019-04-20T03:16:56.527Z,1024.37
2019-04-20T03:17:59.118Z,1024.34
2019-04-20T03:18:53.737Z,1024.31
2019-04-20T03:19:51.309Z,1024.31
2019-04-20T03:21:04.493Z,1024.31
2019-04-20T03:22:06.423Z,1024.29
2019-04-20T03:23:18.754Z,1024.32
2019-04-20T03:24:06.790Z,1024.35
2019-04-20T03:25:03.940Z,1024.33
2019-04-20T03:25:58.528Z,1024.25
2019-04-20T03:26:57.045Z,1024.31
2019-04-20T03:28:01.724Z,1024.32
2019-04-20T03:28:54.347Z,1024.25
2019-04-20T03:29:57.360Z,1024.32
2019-04-20T03:33:14.594Z,1024.36
2019-04-20T03:34:38.441Z,1024.35
2019-04-20T03:35:05.284Z,1024.34
2019-04-20T03:36:07.863Z,1024.37
2019-04-20T03:37:02.572Z,1024.33
2019-04-20T03:38:01.642Z,1024.31
2019-04-20T03:38:57.258Z,1024.36
2019-04-20T03:39:55.518Z,1024.34
2019-04-20T03:40:49.624Z,1024.36
2019-04-20T03:41:41.837Z,1024.35
2019-04-20T03:42:37.061Z,1024.38
2019-04-20T03:43:35.511Z,1024.34
2019-04-20T03:44:37.188Z,1024.32
2019-04-20T03:45:44.797Z,1024.30
2019-04-20T03:46:45.596Z,1024.30
2019-04-20T03:47:49.797Z,1024.35
2019-04-20T03:48:56.815Z,1024.31
2019-04-20T03:49:59.527Z,1024.32
2019-04-20T03:50:56.469Z,1024.33
2019-04-20T03:51:58.794Z,1024.33
2019-04-20T03:52:54.235Z,1024.32
2019-04-20T03:53:55.389Z,1024.34
2019-04-20T03:54:48.293Z,1024.39
2019-04-20T03:55:52.802Z,1024.38
2019-04-20T03:56:54.687Z,1024.40
2019-04-20T03:57:57.165Z,1024.40
2019-04-20T03:58:51.920Z,1024.37
2019-04-20T03:59:56.225Z,1024.31
2019-04-20T04:00:55.722Z,1024.38
2019-04-20T04:02:18.878Z,1024.33
2019-04-20T04:03:10.941Z,1024.36
2019-04-20T04:04:01.013Z,1024.42
2019-04-20T04:04:54.557Z,1024.36
2019-04-20T04:05:50.940Z,1024.36
2019-04-20T04:06:44.862Z,1024.36
2019-04-20T04:07:42.065Z,1024.37
2019-04-20T04:08:42.631Z,1024.36
2019-04-20T04:09:53.427Z,1024.34
2019-04-20T04:10:54.763Z,1024.35
2019-04-20T04:11:51.482Z,1024.34
2019-04-20T04:12:40.340Z,1024.31
2019-04-20T04:13:37.477Z,1024.28
2019-04-20T04:14:35.176Z,1024.34
2019-04-20T04:15:42.147Z,1024.32
2019-04-20T04:16:42.830Z,1024.33
2019-04-20T04:17:40.636Z,1024.36
2019-04-20T04:18:41.033Z,1024.36
2019-04-20T04:19:39.620Z,1024.36
2019-04-20T04:20:43.701Z,1024.35
2019-04-20T04:21:49.889Z,1024.37
2019-04-20T04:22:51.412Z,1024.39
2019-04-20T04:23:56.160Z,1024.43
2019-04-20T04:24:53.068Z,1024.44
2019-04-20T04:25:58.050Z,1024.44
2019-04-20T04:26:51.579Z,1024.43
2019-04-20T04:27:54.585Z,1024.43
2019-04-20T04:28:47.423Z,1024.41
2019-04-20T04:29:57.002Z,1024.44
2019-04-20T04:30:54.557Z,1024.42
2019-04-20T04:32:02.406Z,1024.40
2019-04-20T04:33:20.161Z,1024.39
2019-04-20T04:34:52.671Z,1024.44
2019-04-20T04:35:55.220Z,1024.47
2019-04-20T04:37:00.605Z,1024.49
2019-04-20T04:37:53.565Z,1024.50
2019-04-20T04:39:03.598Z,1024.49
2019-04-20T04:40:00.981Z,1024.54
2019-04-20T04:41:03.217Z,1024.53
2019-04-20T04:42:01.850Z,1024.55
2019-04-20T04:43:00.731Z,1024.58
2019-04-20T04:43:53.825Z,1024.54
2019-04-20T04:44:46.815Z,1024.52
2019-04-20T04:45:36.972Z,1024.52
2019-04-20T04:46:42.583Z,1024.54
2019-04-20T04:47:36.749Z,1024.65
2019-04-20T04:48:40.651Z,1024.57
2019-04-20T04:49:40.070Z,1024.60
2019-04-20T04:50:43.571Z,1024.60
2019-04-20T04:51:44.644Z,1024.65
2019-04-20T04:52:45.335Z,1024.63
2019-04-20T04:53:47.607Z,1024.61
2019-04-20T04:54:46.313Z,1024.65
2019-04-20T04:55:45.705Z,1024.64
2019-04-20T04:56:35.730Z,1024.63
2019-04-20T04:57:34.718Z,1024.62
2019-04-20T04:58:34.710Z,1024.63
2019-04-20T04:59:34.721Z,1024.61
2019-04-20T05:00:35.922Z,1024.65
2019-04-20T05:01:37.000Z,1024.65
2019-04-20T05:02:40.577Z,1024.60
2019-04-20T05:03:58.203Z,1024.64
2019-04-20T05:04:59.982Z,1024.64
2019-04-20T05:05:54.610Z,1024.67
2019-04-20T05:06:48.341Z,1024.69
2019-04-20T05:07:47.777Z,1024.68
2019-04-20T05:08:41.683Z,1024.69
2019-04-20T05:09:35.916Z,1024.76
2019-04-20T05:10:34.826Z,1024.69
2019-04-20T05:11:35.453Z,1024.73
2019-04-20T05:12:36.793Z,1024.70
2019-04-20T05:13:42.883Z,1024.71
2019-04-20T05:14:48.310Z,1024.75
2019-04-20T05:15:48.436Z,1024.75
2019-04-20T05:16:53.943Z,1024.72
2019-04-20T05:17:58.027Z,1024.73
2019-04-20T05:18:58.001Z,1024.70
2019-04-20T05:19:55.299Z,1024.76
2019-04-20T05:20:59.087Z,1024.71
2019-04-20T05:22:01.365Z,1024.73
2019-04-20T05:22:53.709Z,1024.73
2019-04-20T05:23:47.914Z,1024.72
2019-04-20T05:24:59.401Z,1024.70
2019-04-20T05:25:57.092Z,1024.72
2019-04-20T05:26:55.433Z,1024.75
2019-04-20T05:27:56.249Z,1024.75
2019-04-20T05:28:46.267Z,1024.75
2019-04-20T05:29:37.856Z,1024.73
2019-04-20T05:30:42.700Z,1024.74
2019-04-20T05:31:43.176Z,1024.73
2019-04-20T05:32:44.657Z,1024.73
2019-04-20T05:34:04.146Z,1024.79
2019-04-20T05:34:58.176Z,1024.79
2019-04-20T05:35:58.480Z,1024.80
2019-04-20T05:37:04.655Z,1024.77
2019-04-20T05:38:05.112Z,1024.80
2019-04-20T05:38:54.283Z,1024.81
2019-04-20T05:40:00.195Z,1024.74
2019-04-20T05:40:55.498Z,1024.80
2019-04-20T05:41:51.461Z,1024.83
2019-04-20T05:42:54.462Z,1024.83
2019-04-20T05:43:50.598Z,1024.87
2019-04-20T05:45:04.685Z,1024.86
2019-04-20T05:45:49.911Z,1024.90
2019-04-20T05:46:56.662Z,1024.86
2019-04-20T05:47:54.850Z,1024.86
2019-04-20T05:48:57.888Z,1024.87
2019-04-20T05:49:56.088Z,1024.86
2019-04-20T05:50:52.845Z,1024.86
2019-04-20T05:51:54.670Z,1024.91
2019-04-20T05:53:04.564Z,1024.89
2019-04-20T05:53:59.216Z,1024.92
2019-04-20T05:54:59.481Z,1024.86
2019-04-20T05:55:54.674Z,1024.94
2019-04-20T05:56:56.312Z,1024.91
2019-04-20T05:57:58.927Z,1024.92
2019-04-20T05:58:57.545Z,1024.94
2019-04-20T06:00:01.817Z,1024.95
2019-04-20T06:01:01.579Z,1024.94
2019-04-20T06:01:59.192Z,1024.95
2019-04-20T06:02:53.947Z,1024.96
2019-04-20T06:03:56.795Z,1024.98
2019-04-20T06:05:04.372Z,1024.91
2019-04-20T06:06:03.186Z,1024.96
2019-04-20T06:06:54.892Z,1024.96
2019-04-20T06:07:54.905Z,1024.93
2019-04-20T06:08:59.559Z,1025.02
2019-04-20T06:09:59.798Z,1024.97
2019-04-20T06:10:55.011Z,1024.99
2019-04-20T06:12:07.797Z,1025.01
2019-04-20T06:12:52.025Z,1025.03
2019-04-20T06:13:47.141Z,1025.06
2019-04-20T06:14:48.312Z,1025.04
2019-04-20T06:15:53.818Z,1025.06
2019-04-20T06:17:00.102Z,1025.02
2019-04-20T06:17:55.389Z,1025.02
2019-04-20T06:18:58.426Z,1025.04
2019-04-20T06:19:51.971Z,1025.01
2019-04-20T06:20:54.983Z,1025.05
2019-04-20T06:22:02.137Z,1025.07
2019-04-20T06:23:05.900Z,1025.03
2019-04-20T06:23:56.674Z,1025.06
2019-04-20T06:25:04.550Z,1025.02
2019-04-20T06:27:00.885Z,1025.03
2019-04-20T06:27:58.102Z,1025.05
2019-04-20T06:28:46.514Z,1025.07
2019-04-20T06:29:52.695Z,1025.04
2019-04-20T06:30:44.303Z,1025.04
2019-04-20T06:31:52.011Z,1025.06
2019-04-20T06:33:02.989Z,1025.13
2019-04-20T06:34:13.250Z,1025.11
2019-04-20T06:34:58.532Z,1025.09
2019-04-20T06:37:06.987Z,1025.11
2019-04-20T06:38:03.142Z,1025.12
2019-04-20T06:39:02.304Z,1025.15
2019-04-20T06:39:54.661Z,1025.07
2019-04-20T06:41:05.244Z,1025.12
2019-04-20T06:42:58.625Z,1025.10
2019-04-20T06:44:02.139Z,1025.13
2019-04-20T06:44:57.807Z,1025.11
2019-04-20T06:46:05.705Z,1025.08
2019-04-20T06:47:02.769Z,1025.08
2019-04-20T06:47:58.607Z,1025.18
2019-04-20T06:49:05.343Z,1025.15
2019-04-20T06:49:50.383Z,1025.10
2019-04-20T06:50:49.524Z,1025.12
2019-04-20T06:51:59.369Z,1025.12
2019-04-20T06:52:55.045Z,1025.16
2019-04-20T06:53:51.372Z,1025.13
2019-04-20T06:54:55.959Z,1025.15
2019-04-20T06:55:59.170Z,1025.17
2019-04-20T06:56:54.532Z,1025.13
2019-04-20T06:58:01.513Z,1025.16
2019-04-20T06:58:58.847Z,1025.16
2019-04-20T06:59:58.035Z,1025.15
2019-04-20T07:00:58.372Z,1025.18
2019-04-20T07:02:20.106Z,1025.14
2019-04-20T07:02:54.345Z,1025.19
2019-04-20T07:05:01.294Z,1025.12
2019-04-20T07:06:08.511Z,1025.11
2019-04-20T07:07:05.332Z,1025.14
2019-04-20T07:08:07.088Z,1025.10
2019-04-20T07:09:00.669Z,1025.08
2019-04-20T07:10:08.870Z,1025.11
2019-04-20T07:11:02.161Z,1025.07
2019-04-20T07:11:54.732Z,1025.12
2019-04-20T07:12:49.744Z,1025.05
2019-04-20T07:13:46.117Z,1025.07
2019-04-20T07:14:47.397Z,1025.05
2019-04-20T07:15:49.580Z,1025.09
2019-04-20T07:16:53.102Z,1025.02
2019-04-20T07:17:57.526Z,1025.00
2019-04-20T07:18:55.226Z,1024.98
2019-04-20T07:19:52.729Z,1025.08
2019-04-20T07:20:59.277Z,1025.02
2019-04-20T07:23:02.226Z,1025.01
2019-04-20T07:24:08.189Z,1025.00
2019-04-20T07:24:56.719Z,1025.00
2019-04-20T07:25:54.207Z,1024.98
2019-04-20T07:26:59.194Z,1025.02
2019-04-20T07:27:53.572Z,1024.98
2019-04-20T07:29:00.699Z,1025.00
2019-04-20T07:29:57.948Z,1025.00
2019-04-20T07:31:05.715Z,1025.01
2019-04-20T07:31:48.758Z,1025.03
2019-04-20T07:33:09.100Z,1025.07
2019-04-20T07:33:56.997Z,1025.01
2019-04-20T07:34:55.631Z,1025.06
2019-04-20T07:35:50.958Z,1025.04
2019-04-20T07:37:17.730Z,1025.04
2019-04-20T07:38:21.025Z,1024.98
2019-04-20T07:38:56.656Z,1024.98
2019-04-20T07:39:58.891Z,1025.01
2019-04-20T07:40:49.998Z,1025.04
2019-04-20T07:42:00.617Z,1025.02
2019-04-20T07:43:00.235Z,1025.06
2019-04-20T07:44:04.467Z,1025.04
2019-04-20T07:45:01.807Z,1025.03
2019-04-20T07:45:56.910Z,1025.02
2019-04-20T07:47:05.115Z,1024.98
2019-04-20T07:48:01.650Z,1024.99
2019-04-20T07:48:55.322Z,1024.99
2019-04-20T07:49:49.661Z,1025.00
2019-04-20T07:50:45.020Z,1024.93
2019-04-20T07:51:37.567Z,1024.95
2019-04-20T07:52:46.266Z,1024.92
2019-04-20T07:53:57.557Z,1024.90
2019-04-20T07:55:12.149Z,1024.93
2019-04-20T07:55:56.338Z,1024.95
2019-04-20T07:56:57.541Z,1024.93
2019-04-20T07:57:47.398Z,1024.88
2019-04-20T07:58:44.166Z,1024.89
2019-04-20T07:59:52.829Z,1024.90
2019-04-20T08:01:05.207Z,1024.90
2019-04-20T08:02:04.336Z,1024.89
2019-04-20T08:02:57.491Z,1024.89
2019-04-20T08:03:55.700Z,1024.91
2019-04-20T08:04:52.365Z,1024.95
2019-04-20T08:05:46.700Z,1024.86
2019-04-20T08:06:40.730Z,1024.84
2019-04-20T08:07:45.258Z,1024.84
2019-04-20T08:08:49.281Z,1024.82
2019-04-20T08:09:42.115Z,1024.81
2019-04-20T08:10:52.340Z,1024.81
2019-04-20T08:11:56.558Z,1024.82
2019-04-20T08:13:02.142Z,1024.79
2019-04-20T08:13:56.902Z,1024.91
2019-04-20T08:14:56.895Z,1024.81
2019-04-20T08:15:57.248Z,1024.80
2019-04-20T08:17:09.152Z,1024.86
2019-04-20T08:18:07.679Z,1024.91
2019-04-20T08:18:53.798Z,1024.84
2019-04-20T08:19:54.948Z,1024.82
2019-04-20T08:20:58.490Z,1024.88
2019-04-20T08:21:52.190Z,1024.82
2019-04-20T08:22:55.246Z,1024.85
2019-04-20T08:23:52.143Z,1024.84
2019-04-20T08:24:49.925Z,1024.84
2019-04-20T08:25:45.468Z,1024.88
2019-04-20T08:26:43.416Z,1024.87
2019-04-20T08:27:33.859Z,1024.89
2019-04-20T08:28:42.587Z,1024.82
2019-04-20T08:29:47.444Z,1024.85
2019-04-20T08:30:48.646Z,1024.81
2019-04-20T08:31:51.443Z,1024.83
2019-04-20T08:32:50.650Z,1024.85
2019-04-20T08:34:04.485Z,1024.83
2019-04-20T08:34:56.601Z,1024.84
2019-04-20T08:36:01.276Z,1024.80
2019-04-20T08:36:58.549Z,1024.82
2019-04-20T08:38:14.840Z,1024.78
2019-04-20T08:40:53.912Z,1024.80
2019-04-20T08:41:56.325Z,1024.81
2019-04-20T08:43:02.778Z,1024.83
2019-04-20T08:44:21.443Z,1024.84
2019-04-20T08:45:00.062Z,1024.76
2019-04-20T08:45:55.308Z,1024.82
2019-04-20T08:47:03.872Z,1024.82
2019-04-20T08:47:56.984Z,1024.74
2019-04-20T08:48:56.775Z,1024.72
2019-04-20T08:50:01.718Z,1024.68
2019-04-20T08:50:50.695Z,1024.71
2019-04-20T08:52:05.914Z,1024.73
2019-04-20T08:53:16.867Z,1024.75
2019-04-20T08:53:53.315Z,1024.78
2019-04-20T08:54:49.888Z,1024.77
2019-04-20T08:55:45.345Z,1024.73
2019-04-20T08:56:42.397Z,1024.77
2019-04-20T08:57:33.590Z,1024.73
2019-04-20T08:58:32.112Z,1024.74
2019-04-20T08:59:33.939Z,1024.69
2019-04-20T09:00:39.533Z,1024.70
2019-04-20T09:01:35.713Z,1024.69
2019-04-20T09:02:32.707Z,1024.68
2019-04-20T09:03:43.843Z,1024.71
2019-04-20T09:04:43.123Z,1024.70
2019-04-20T09:05:45.569Z,1024.72
2019-04-20T09:06:45.650Z,1024.71
2019-04-20T09:07:38.957Z,1024.70
2019-04-20T09:08:46.638Z,1024.70
2019-04-20T09:09:52.727Z,1024.68
2019-04-20T09:10:49.213Z,1024.63
2019-04-20T09:11:58.500Z,1024.65
2019-04-20T09:12:49.386Z,1024.62
2019-04-20T09:13:40.632Z,1024.61
2019-04-20T09:14:35.171Z,1024.64
2019-04-20T09:15:32.099Z,1024.67
2019-04-20T09:16:40.954Z,1024.67
2019-04-20T09:17:40.999Z,1024.64
2019-04-20T09:18:43.299Z,1024.63
2019-04-20T09:19:41.723Z,1024.63
2019-04-20T09:20:46.240Z,1024.62
2019-04-20T09:21:43.701Z,1024.60
2019-04-20T09:22:44.520Z,1024.58
2019-04-20T09:23:45.903Z,1024.66
2019-04-20T09:24:52.888Z,1024.63
2019-04-20T09:26:06.229Z,1024.64
2019-04-20T09:26:47.757Z,1024.66
2019-04-20T09:27:41.377Z,1024.64
2019-04-20T09:28:39.602Z,1024.66
2019-04-20T09:29:44.886Z,1024.65
2019-04-20T09:30:42.881Z,1024.71
2019-04-20T09:31:46.951Z,1024.60
2019-04-20T09:32:43.941Z,1024.63
2019-04-20T09:33:54.153Z,1024.61
2019-04-20T09:34:53.178Z,1024.64
2019-04-20T09:35:52.339Z,1024.66
2019-04-20T09:36:46.243Z,1024.60
2019-04-20T09:37:49.632Z,1024.63
2019-04-20T09:38:44.288Z,1024.59
2019-04-20T09:39:51.392Z,1024.59
2019-04-20T09:40:51.097Z,1024.55
2019-04-20T09:41:54.903Z,1024.57
2019-04-20T09:42:32.647Z,1024.55
2019-04-20T09:43:32.388Z,1024.59
2019-04-20T09:44:38.690Z,1024.58
2019-04-20T09:45:38.186Z,1024.55
2019-04-20T09:46:37.783Z,1024.57
2019-04-20T09:47:36.832Z,1024.59
2019-04-20T09:48:40.188Z,1024.56
2019-04-20T09:49:42.862Z,1024.59
2019-04-20T09:50:56.461Z,1024.52
2019-04-20T09:51:49.955Z,1024.54
2019-04-20T09:52:52.634Z,1024.54
2019-04-20T09:53:43.133Z,1024.49
2019-04-20T09:54:52.435Z,1024.48
2019-04-20T09:55:47.321Z,1024.41
2019-04-20T09:56:55.026Z,1024.40
2019-04-20T09:57:50.130Z,1024.48
2019-04-20T09:58:55.248Z,1024.43
2019-04-20T09:59:52.864Z,1024.44
2019-04-20T10:00:48.789Z,1024.46
2019-04-20T10:01:40.237Z,1024.44
2019-04-20T10:02:36.097Z,1024.48
2019-04-20T10:03:32.426Z,1024.44
2019-04-20T10:04:31.406Z,1024.40
2019-04-20T10:05:31.575Z,1024.40
2019-04-20T10:06:34.546Z,1024.40
2019-04-20T10:07:35.216Z,1024.39
2019-04-20T10:08:34.073Z,1024.38
2019-04-20T10:09:37.601Z,1024.34
2019-04-20T10:10:38.972Z,1024.36
2019-04-20T10:11:32.321Z,1024.33
2019-04-20T10:12:31.580Z,1024.30
2019-04-20T10:13:32.190Z,1024.25
2019-04-20T10:14:31.292Z,1024.27
2019-04-20T10:15:32.747Z,1024.30
2019-04-20T10:16:31.535Z,1024.24
2019-04-20T10:17:33.245Z,1024.25
2019-04-20T10:18:34.287Z,1024.21
2019-04-20T10:19:34.665Z,1024.18
2019-04-20T10:20:35.303Z,1024.24
2019-04-20T10:21:32.220Z,1024.21
2019-04-20T10:22:31.232Z,1024.19
2019-04-20T10:23:32.500Z,1024.17
2019-04-20T10:24:32.667Z,1024.15
2019-04-20T10:25:31.186Z,1024.13
2019-04-20T10:26:32.335Z,1024.10
2019-04-20T10:27:32.615Z,1024.11
2019-04-20T10:28:31.826Z,1024.10
2019-04-20T10:29:31.362Z,1024.11
2019-04-20T10:30:32.459Z,1024.09
2019-04-20T10:31:35.769Z,1024.11
2019-04-20T10:32:37.679Z,1024.06
2019-04-20T10:33:33.437Z,1024.12
2019-04-20T10:34:31.084Z,1024.12
2019-04-20T10:35:31.720Z,1024.16
2019-04-20T10:36:31.068Z,1024.09
2019-04-20T10:37:33.534Z,1024.09
2019-04-20T10:38:34.093Z,1024.07
2019-04-20T10:39:31.061Z,1024.04
2019-04-20T10:40:44.808Z,1024.06
2019-04-20T10:41:40.928Z,1024.06
2019-04-20T10:42:32.262Z,1024.06
2019-04-20T10:43:30.993Z,1024.04
2019-04-20T10:44:31.004Z,1024.01
2019-04-20T10:45:31.006Z,1024.01
2019-04-20T10:46:31.168Z,1024.00
2019-04-20T10:47:31.009Z,1023.99
2019-04-20T10:48:37.607Z,1023.97
2019-04-20T10:49:33.147Z,1023.95
2019-04-20T10:50:31.245Z,1023.98
2019-04-20T10:51:31.471Z,1024.02
2019-04-20T10:52:31.984Z,1024.01
2019-04-20T10:53:32.098Z,1023.97
2019-04-20T10:54:34.385Z,1023.95
2019-04-20T10:55:31.474Z,1023.93
2019-04-20T10:56:31.721Z,1023.99
2019-04-20T10:57:31.247Z,1023.99
2019-04-20T10:58:31.742Z,1023.95
2019-04-20T10:59:31.834Z,1023.97
2019-04-20T11:00:31.365Z,1023.92
2019-04-20T11:01:31.643Z,1023.93
2019-04-20T11:02:31.891Z,1024.02
2019-04-20T11:03:30.784Z,1023.98
2019-04-20T11:04:30.780Z,1023.93
2019-04-20T11:05:30.793Z,1023.94
2019-04-20T11:06:30.757Z,1023.87
2019-04-20T11:07:30.783Z,1023.90
2019-04-20T11:08:30.771Z,1023.91
2019-04-20T11:09:30.732Z,1023.89
2019-04-20T11:10:46.794Z,1023.86
2019-04-20T11:11:33.558Z,1023.81
2019-04-20T11:12:30.699Z,1023.85
2019-04-20T11:13:30.689Z,1023.87
2019-04-20T11:14:34.794Z,1023.82
2019-04-20T11:15:32.475Z,1023.81
2019-04-20T11:16:30.692Z,1023.86
2019-04-20T11:17:31.819Z,1023.84
2019-04-20T11:18:31.375Z,1023.81
2019-04-20T11:19:31.567Z,1023.78
2019-04-20T11:20:31.059Z,1023.81
2019-04-20T11:21:30.618Z,1023.85
2019-04-20T11:22:30.648Z,1023.79
2019-04-20T11:23:32.017Z,1023.78
2019-04-20T11:24:30.572Z,1023.74
2019-04-20T11:25:30.552Z,1023.68
2019-04-20T11:26:31.769Z,1023.68
2019-04-20T11:27:30.543Z,1023.66
2019-04-20T11:28:30.525Z,1023.71
2019-04-20T11:29:31.786Z,1023.67
2019-04-20T11:30:30.516Z,1023.66
2019-04-20T11:31:37.351Z,1023.60
2019-04-20T11:32:31.498Z,1023.58
2019-04-20T11:33:30.478Z,1023.60
2019-04-20T11:34:33.991Z,1023.55
2019-04-20T11:35:37.255Z,1023.55
2019-04-20T11:36:32.712Z,1023.58
2019-04-20T11:37:31.043Z,1023.48
2019-04-20T11:38:30.423Z,1023.46
2019-04-20T11:39:30.408Z,1023.51
2019-04-20T11:40:30.815Z,1023.47
2019-04-20T11:41:33.638Z,1023.44
2019-04-20T11:42:30.416Z,1023.42
2019-04-20T11:43:31.493Z,1023.39
2019-04-20T11:44:32.177Z,1023.39
2019-04-20T11:45:30.915Z,1023.33
2019-04-20T11:46:30.518Z,1023.31
2019-04-20T11:47:31.594Z,1023.32
2019-04-20T11:48:31.618Z,1023.35
2019-04-20T11:49:31.344Z,1023.36
2019-04-20T11:50:31.601Z,1023.30
2019-04-20T11:51:31.654Z,1023.27
2019-04-20T11:52:32.611Z,1023.32
2019-04-20T11:53:32.230Z,1023.30
2019-04-20T11:54:30.508Z,1023.34
2019-04-20T11:55:30.685Z,1023.30
2019-04-20T11:56:36.197Z,1023.22
2019-04-20T11:57:31.313Z,1023.22
2019-04-20T11:58:30.401Z,1023.25
2019-04-20T11:59:30.601Z,1023.18
2019-04-20T12:00:37.064Z,1023.26
2019-04-20T12:01:39.244Z,1023.24
2019-04-20T12:02:37.104Z,1023.22
2019-04-20T12:03:41.499Z,1023.21
2019-04-20T12:04:41.431Z,1023.20
2019-04-20T12:05:38.068Z,1023.21
2019-04-20T12:06:31.121Z,1023.21
2019-04-20T12:07:32.311Z,1023.21
2019-04-20T12:08:32.175Z,1023.14
2019-04-20T12:09:31.291Z,1023.15
2019-04-20T12:10:31.587Z,1023.16
2019-04-20T12:11:39.698Z,1023.16
2019-04-20T12:12:39.149Z,1023.13
2019-04-20T12:13:31.228Z,1023.09
2019-04-20T12:14:30.490Z,1023.11
2019-04-20T12:15:32.155Z,1023.06
2019-04-20T12:16:30.018Z,1023.08
2019-04-20T12:17:31.394Z,1023.07
2019-04-20T12:18:29.994Z,1023.07
2019-04-20T12:19:31.185Z,1023.05
2019-04-20T12:20:29.968Z,1023.00
2019-04-20T12:21:30.734Z,1023.03
2019-04-20T12:22:30.380Z,1023.07
2019-04-20T12:23:30.647Z,1022.99
2019-04-20T12:24:31.187Z,1022.95